createdAt,value
2023-02-05T00:01:28.240Z,83.10
2023-02-05T00:06:31.024Z,83.79
2023-02-05T00:11:33.901Z,83.37
2023-02-05T00:16:36.710Z,83.03
2023-02-05T00:21:39.668Z,83.53
2023-02-05T00:26:42.499Z,83.63
2023-02-05T00:31:48.030Z,82.85
2023-02-05T00:36:50.766Z,83.33
2023-02-05T00:41:53.638Z,83.48
2023-02-05T00:46:56.484Z,83.11
2023-02-05T00:51:59.140Z,83.43
2023-02-05T00:57:01.982Z,83.37
2023-02-05T01:02:04.663Z,83.04
2023-02-05T01:07:07.530Z,83.17
2023-02-05T01:12:10.182Z,83.05
2023-02-05T01:17:12.884Z,82.81
2023-02-05T01:22:16.415Z,82.44
2023-02-05T01:27:19.376Z,82.60
2023-02-05T01:32:22.567Z,83.26
2023-02-05T01:37:25.616Z,82.85
2023-02-05T01:42:30.556Z,82.70
2023-02-05T01:47:33.303Z,83.27
2023-02-05T01:52:36.050Z,82.44
2023-02-05T01:57:39.122Z,82.73
2023-02-05T02:02:41.912Z,82.74
2023-02-05T02:07:44.649Z,82.39
2023-02-05T02:12:48.361Z,82.54
2023-02-05T02:17:57.124Z,82.42
2023-02-05T02:23:37.470Z,82.72
2023-02-05T02:28:53.198Z,82.51
2023-02-05T02:34:15.157Z,82.05
2023-02-05T02:39:25.538Z,82.97
2023-02-05T02:45:07.529Z,82.39
2023-02-05T02:50:21.156Z,83.05
2023-02-05T02:55:24.917Z,82.94
2023-02-05T03:00:29.929Z,83.12
2023-02-05T03:05:35.323Z,82.98
2023-02-05T03:11:00.226Z,82.43
2023-02-05T03:16:04.855Z,82.59
2023-02-05T03:21:28.799Z,82.90
2023-02-05T03:26:35.493Z,82.47
2023-02-05T03:31:48.525Z,82.51
2023-02-05T03:37:29.884Z,82.70
2023-02-05T03:42:54.089Z,81.81
2023-02-05T03:48:03.584Z,81.43
2023-02-05T03:53:36.844Z,81.74
2023-02-05T03:58:44.540Z,81.22
2023-02-05T04:03:47.307Z,81.01
2023-02-05T04:08:50.533Z,81.48
2023-02-05T04:13:53.239Z,80.49
2023-02-05T04:18:56.395Z,80.50
2023-02-05T04:24:00.280Z,80.36
2023-02-05T04:29:03.773Z,80.86
2023-02-05T04:34:09.719Z,80.32
2023-02-05T04:39:13.918Z,79.97
2023-02-05T04:44:17.333Z,80.16
2023-02-05T04:49:20.754Z,79.76
2023-02-05T04:54:23.511Z,79.63
2023-02-05T04:59:26.686Z,80.22
2023-02-05T05:04:29.389Z,79.43
2023-02-05T05:09:32.055Z,79.27
2023-02-05T05:14:35.143Z,79.40
2023-02-05T05:19:37.649Z,79.55
2023-02-05T05:24:40.502Z,79.15
2023-02-05T05:29:43.386Z,78.97
2023-02-05T05:34:46.119Z,78.68
2023-02-05T05:40:07.174Z,78.20
2023-02-05T05:45:10.052Z,77.91
2023-02-05T05:50:12.962Z,78.18
2023-02-05T05:55:15.717Z,78.27
2023-02-05T06:00:18.698Z,78.19
2023-02-05T06:05:21.446Z,78.51
2023-02-05T06:10:24.511Z,78.49
2023-02-05T06:15:27.393Z,78.71
2023-02-05T06:20:30.065Z,78.70
2023-02-05T06:25:33.160Z,78.56
2023-02-05T06:30:36.082Z,79.05
2023-02-05T06:35:39.830Z,79.06
2023-02-05T06:40:42.506Z,79.07
2023-02-05T06:45:45.291Z,78.95
2023-02-05T06:50:48.042Z,78.98
2023-02-05T06:55:50.651Z,78.84
2023-02-05T07:00:53.392Z,78.81
2023-02-05T07:05:56.146Z,78.77
2023-02-05T07:10:58.991Z,78.96
2023-02-05T07:16:05.713Z,78.97
2023-02-05T07:21:10.697Z,78.73
2023-02-05T07:26:17.294Z,79.05
2023-02-05T07:31:20.864Z,78.87
2023-02-05T07:36:23.687Z,78.77
2023-02-05T07:41:28.961Z,78.93
2023-02-05T07:46:31.735Z,79.08
2023-02-05T07:51:35.395Z,79.10
2023-02-05T07:56:38.558Z,79.35
2023-02-05T08:01:41.276Z,79.25
2023-02-05T08:06:44.157Z,79.28
2023-02-05T08:11:46.941Z,79.58
2023-02-05T08:16:49.622Z,79.08
2023-02-05T08:21:52.909Z,79.46
2023-02-05T08:26:55.626Z,79.58
2023-02-05T08:31:58.559Z,79.41
2023-02-05T08:37:01.597Z,79.48
2023-02-05T08:42:04.796Z,79.59
2023-02-05T08:47:07.577Z,79.14
2023-02-05T08:52:10.249Z,79.58
2023-02-05T08:57:13.148Z,79.44
2023-02-05T09:02:16.262Z,79.50
2023-02-05T09:07:18.990Z,79.21
2023-02-05T09:12:21.704Z,79.87
2023-02-05T09:17:24.581Z,79.55
2023-02-05T09:22:27.359Z,79.63
2023-02-05T09:27:30.848Z,80.24
2023-02-05T09:32:33.588Z,80.17
2023-02-05T09:37:36.511Z,80.08
2023-02-05T09:42:49.618Z,79.90
2023-02-05T09:48:04.192Z,80.01
2023-02-05T09:53:12.774Z,80.67
2023-02-05T09:58:38.249Z,80.59
2023-02-05T10:03:50.487Z,80.37
2023-02-05T10:09:09.657Z,80.44
2023-02-05T10:14:27.519Z,80.60
2023-02-05T10:20:08.161Z,80.97
2023-02-05T10:25:22.770Z,81.28
2023-02-05T10:30:41.146Z,81.44
2023-02-05T10:35:50.344Z,81.75
2023-02-05T10:41:00.640Z,81.28
2023-02-05T10:46:05.669Z,81.87
2023-02-05T10:51:15.187Z,81.30
2023-02-05T10:56:18.915Z,81.92
2023-02-05T11:01:25.021Z,82.18
2023-02-05T11:06:32.353Z,82.64
2023-02-05T11:11:35.219Z,82.85
2023-02-05T11:16:41.955Z,82.79
2023-02-05T11:21:53.566Z,83.37
2023-02-05T11:27:17.666Z,83.02
2023-02-05T11:32:39.607Z,83.72
2023-02-05T11:37:42.382Z,83.66
2023-02-05T11:42:49.163Z,83.67
2023-02-05T11:47:51.980Z,83.60
2023-02-05T11:52:56.257Z,83.45
2023-02-05T11:58:31.555Z,83.96
2023-02-05T12:03:38.585Z,83.97
2023-02-05T12:08:48.925Z,84.30
2023-02-05T12:14:06.577Z,84.16
2023-02-05T12:19:34.787Z,83.83
2023-02-05T12:24:52.675Z,84.13
2023-02-05T12:30:10.195Z,84.08
2023-02-05T12:35:32.336Z,84.27
2023-02-05T12:40:57.775Z,84.03
2023-02-05T12:46:15.642Z,84.28
2023-02-05T12:51:25.865Z,84.36
2023-02-05T12:56:37.394Z,84.78
2023-02-05T13:01:44.845Z,84.72
2023-02-05T13:06:55.918Z,85.00
2023-02-05T13:12:01.974Z,84.46
2023-02-05T13:17:18.477Z,84.66
2023-02-05T13:22:56.838Z,84.51
2023-02-05T13:28:20.846Z,84.77
2023-02-05T13:33:23.595Z,84.65
2023-02-05T13:39:01.247Z,84.52
2023-02-05T13:44:26.494Z,84.46
2023-02-05T13:50:10.746Z,84.70
2023-02-05T13:55:21.788Z,84.69
2023-02-05T14:00:25.517Z,84.49
2023-02-05T14:05:30.738Z,84.41
2023-02-05T14:10:36.458Z,84.74
2023-02-05T14:15:42.278Z,84.99
2023-02-05T14:20:46.060Z,84.43
2023-02-05T14:26:04.148Z,84.76
2023-02-05T14:31:07.893Z,84.49
2023-02-05T14:36:23.165Z,84.54
2023-02-05T14:41:46.308Z,84.47
2023-02-05T14:47:02.864Z,84.02
2023-02-05T14:52:39.110Z,84.23
2023-02-05T14:57:59.588Z,84.01
2023-02-05T15:03:05.444Z,84.18
2023-02-05T15:08:29.549Z,84.35
2023-02-05T15:13:32.989Z,84.42
2023-02-05T15:18:56.574Z,84.01
2023-02-05T15:24:24.438Z,84.39
2023-02-05T15:29:45.952Z,84.25
2023-02-05T15:35:00.827Z,84.12
2023-02-05T15:40:25.165Z,83.95
2023-02-05T15:45:40.159Z,84.00
2023-02-05T15:50:49.218Z,83.85
2023-02-05T15:55:52.158Z,83.70
2023-02-05T16:00:56.685Z,83.41
2023-02-05T16:05:59.952Z,83.56
2023-02-05T16:11:05.667Z,83.39
2023-02-05T16:16:12.313Z,83.36
2023-02-05T16:21:21.856Z,83.31
2023-02-05T16:26:28.626Z,83.72
2023-02-05T16:31:32.674Z,83.15
2023-02-05T16:36:39.282Z,83.38
2023-02-05T16:41:43.109Z,83.03
2023-02-05T16:46:46.030Z,82.65
2023-02-05T16:51:48.630Z,82.82
2023-02-05T16:56:54.210Z,82.57
2023-02-05T17:01:57.020Z,82.58
2023-02-05T17:07:02.858Z,82.81
2023-02-05T17:12:20.810Z,82.37
2023-02-05T17:17:25.549Z,82.36
2023-02-05T17:22:28.785Z,82.46
2023-02-05T17:27:36.776Z,82.26
2023-02-05T17:32:39.476Z,82.40
2023-02-05T17:37:42.095Z,82.33
2023-02-05T17:42:46.382Z,82.31
2023-02-05T17:47:49.966Z,82.03
2023-02-05T17:52:54.892Z,82.51
2023-02-05T17:57:57.894Z,82.35
2023-02-05T18:03:00.572Z,82.00
2023-02-05T18:08:04.759Z,82.02
2023-02-05T18:13:07.484Z,81.52
2023-02-05T18:18:10.583Z,81.74
2023-02-05T18:23:28.386Z,81.53
2023-02-05T18:28:32.186Z,81.19
2023-02-05T18:33:35.324Z,81.51
2023-02-05T18:38:39.057Z,81.65
2023-02-05T18:43:42.396Z,81.45
2023-02-05T18:48:49.661Z,80.88
2023-02-05T18:53:52.954Z,80.74
2023-02-05T18:59:06.374Z,81.53
2023-02-05T19:04:12.726Z,81.25
2023-02-05T19:09:15.421Z,81.22
2023-02-05T19:14:20.348Z,80.63
2023-02-05T19:19:25.698Z,81.14
2023-02-05T19:24:29.216Z,80.60
2023-02-05T19:29:35.328Z,80.75
2023-02-05T19:34:43.552Z,80.48
2023-02-05T19:39:46.698Z,80.77
2023-02-05T19:44:49.223Z,80.92
2023-02-05T19:49:51.911Z,79.90
2023-02-05T19:54:54.950Z,80.41
2023-02-05T19:59:57.635Z,80.03
2023-02-05T20:05:00.586Z,80.38
2023-02-05T20:10:03.379Z,80.03
2023-02-05T20:15:06.541Z,80.06
2023-02-05T20:20:14.122Z,79.20
2023-02-05T20:25:21.551Z,79.91
2023-02-05T20:30:42.544Z,79.57
2023-02-05T20:35:45.401Z,79.66
2023-02-05T20:40:48.050Z,79.22
2023-02-05T20:45:50.792Z,78.64
2023-02-05T20:50:53.392Z,79.08
2023-02-05T20:56:07.881Z,79.28
2023-02-05T21:01:22.750Z,79.64
2023-02-05T21:06:26.677Z,79.76
2023-02-05T21:11:30.000Z,79.20
2023-02-05T21:16:34.693Z,79.45
2023-02-05T21:21:38.059Z,79.17
2023-02-05T21:26:43.372Z,79.34
2023-02-05T21:31:53.352Z,79.25
2023-02-05T21:36:56.526Z,79.20
2023-02-05T21:41:59.372Z,78.85
2023-02-05T21:47:02.029Z,78.91
2023-02-05T21:52:04.750Z,78.88
2023-02-05T21:57:08.712Z,78.78
2023-02-05T22:02:12.498Z,78.26
2023-02-05T22:07:15.201Z,78.37
2023-02-05T22:12:18.309Z,78.31
2023-02-05T22:17:20.989Z,78.27
2023-02-05T22:22:23.685Z,78.17
2023-02-05T22:27:27.435Z,77.83
2023-02-05T22:32:30.183Z,77.97
2023-02-05T22:37:32.842Z,77.74
2023-02-05T22:42:35.541Z,77.75
2023-02-05T22:47:38.245Z,78.00
2023-02-05T22:52:40.883Z,77.43
2023-02-05T22:57:44.446Z,77.84
2023-02-05T23:02:47.158Z,77.67
2023-02-05T23:07:50.866Z,78.04
2023-02-05T23:12:53.601Z,77.47
2023-02-05T23:17:56.313Z,77.91
2023-02-05T23:22:58.990Z,77.57
2023-02-05T23:28:01.724Z,77.63
2023-02-05T23:33:04.243Z,77.81
2023-02-05T23:38:07.072Z,77.47
2023-02-05T23:43:09.803Z,77.02
2023-02-05T23:48:12.566Z,77.62
2023-02-05T23:53:15.110Z,77.06
2023-02-05T23:58:19.215Z,77.35
